CheckWX is a tool to help pilots better visualize weather data.  It is not intended as a substitute for an official pre-flight weather briefing.

21:35:53 UTC

KJAC TAF
Jackson Hole Airport
Jackson, Wyoming, USA
KJAC 201720Z 2018/2118 35004KT P6SM SKC FM210300 02007KT P6SM SKC FM211500 VRB04KT P6SM SKC AMD LTD TO CLD VIS AND WIND

Mar-20@
18:00 UTC

Mar-20 @ 18:00 UTC

Mar-21@
03:00 UTC

Mar-21 @ 03:00 UTC

KJAC 201720Z 2018/2118 35004KT P6SM SKC
Wind
  • 350° at 4 KTS
Cloud Levels
  • Clear skies

Mar-21@
03:00 UTC

Mar-21 @ 03:00 UTC

Mar-21@
15:00 UTC

Mar-21 @ 15:00 UTC

FM210300 02007KT P6SM SKC

From

From Standard forecast or significant change

Wind
  • 020° at 7 KTS
Cloud Levels
  • Clear skies

Mar-21@
15:00 UTC

Mar-21 @ 15:00 UTC

Mar-21@
18:00 UTC

Mar-21 @ 18:00 UTC

FM211500 VRB04KT P6SM SKC AMD LTD TO CLD VIS AND WIND

From

From Standard forecast or significant change

Wind
  • Variable at 4 KTS
Cloud Levels
  • Clear skies